EEEI

Ämari Air Base Airport

Keila, Estonia
METAR EEEI 171650Z 18007KT CAVOK 12/09 Q1019 NOSIG
Observed Flight Rules
Oct-17 @ 16:50 UTC (8 hours ago) Visual Flight Rules
Wind Visibility Clouds
180° at 7 knots 10,000+ meters
  • Clear skies
Temperatures Readings
Current 12°C / 54°F
Dewpoint 9°C / 48°F
Humidity 82%
Altimeter 30.09" Hg
Pressure 1019 hPa
Elevation 20
METAR EEEI 171650Z 18007KT CAVOK 12/09 Q1019 NOSIG
Observed Flight Rules
Oct-17 @ 16:50 UTC
(8 hours ago)
VFR
Wind Visibility
180° at 7 knots 10,000+ meters
Clouds
  • Clear skies
Temperature Dewpoint
12°C / 54°F 9°C / 48°F
Humidity Altimeter Pressure
82% 30.09" Hg 1019 hPa